TERMINUS DAM (TRM)

Elevation: 752' · KAWEAH R basin · Operator: US Army Corps of Engineers

Provisional data, subject to change.
Query executed Saturday at 20:01:41   clock

Select a sensor type for a plot of data.
Note: Reservoir Flows are daily averages.

Earlier

Date RES ELE    STORAGE    RES CHG    TOC STO    ABV TOC    OUTFLOW    INFLOW    FNF    PPT INC    TEMP MN    TEMP MX    WINDLEN    EVP PAN   
 FEET   AF   AF   AF   AF   CFS   CFS   CFS   INCHES   DEG F   DEG F   MILES   INCHES  
04/24/2015 641.49 59063 200 133214 -74151 65 171 171 0.00 13 24 65 0.16
04/25/2015 641.67 59289 226 138393 -79104 65 183 183 0.00 11 19 86 0.13
04/26/2015 641.87 59540 251 143571 -84031 64 197 197 0.00 8 23 76 0.18
04/27/2015 642.14 59881 341 148750 -88869 62 244 244 0.00 14 31 93 0.28
04/28/2015 642.46 60285 404 153929 -93644 58 273 273 0.00 16 34 112 0.32
04/29/2015 642.80 60717 -- 159107 -- 58 287 287 0.00 17 33 103 0.29
04/30/2015 643.13 61138 421 164286 -103148 61 285 285 0.00 18 37 91 0.31
05/01/2015 643.47 61572 434 169539 -107967 62 293 293 0.00 20 36 98 0.32
05/02/2015 643.78 61970 -- 174793 -112823 62 275 275 0.00 17 34 110 0.33
05/03/2015 644.06 62331 -- 180046 -117715 62 256 256 0.00 16 32 112 0.32
05/04/2015 644.32 62667 336 185300 -122633 62 241 241 0.00 13 28 91 0.25
05/05/2015 644.53 62939 -- 185300 -122361 61 208 208 0.00 12 28 91 0.26
05/06/2015 644.72 63186 247 185300 -122114 61 195 195 0.00 11 25 76 0.24
05/07/2015 644.91 63433 247 185300 -121867 61 191 191 0.00 11 19 113 0.15
05/08/2015 645.09 63667 234 185300 -121633 61 185 185 0.00 10 19 117 0.15
05/09/2015 645.25 63876 209 185300 -121424 62 177 177 0.00 13 26 127 0.27
05/10/2015 645.39 64059 183 185300 -121241 64 168 168 0.00 14 32 119 0.32
05/11/2015 645.49 64190 131 185300 -121110 74 151 151 0.00 17 30 107 0.29
05/12/2015 645.60 64334 144 185300 -120966 82 165 165 0.00 11 25 84 0.25
05/13/2015 645.71 64479 145 185300 -120821 80 161 161 0.00 9 24 78 0.23
05/14/2015 645.87 64689 210 185300 -120611 72 183 183 0.00 10 23 76 0.16
05/15/2015 646.11 65005 316 185300 -120295 59 223 223 0.00 11 19 121 0.13
05/16/2015 646.32 65282 277 185300 -120018 52 201 201 0.00 11 25 97 0.26
05/17/2015 646.49 65507 225 185300 -119793 53 175 175 0.00 13 26 98 0.22
05/18/2015 646.74 65839 332 185300 -119461 52 229 229 0.00 14 26 104 0.26
05/19/2015 647.01 66198 359 185300 -119102 51 242 242 0.00 10 26 84 0.25
05/20/2015 647.29 66571 373 185300 -118729 51 249 249 0.00 14 28 99 0.26
05/21/2015 647.65 67053 482 185300 -118247 51 298 298 0.00 13 19 60 0.10
05/22/2015 648.09 67644 591 185300 -117656 51 353 -- 0.00 14 20 85 0.10
05/23/2015 -- -- -- -- -- -- -- -- -- -- -- -- --

Later | Latest

Warning! This data is preliminary and subject to revision.

Show TRM Map | Plot TRM Data | 1 Month TRM Data | Real-Time TRM Data | TRM Info